sensor_id;sensor_type;location;lat;lon;timestamp;pressure;altitude;pressure_sealevel;temperature;humidity
29371;BME280;16357;52.188;7.838;2023-03-31T00:02:21;99722.03;;;13.31;62.11
29371;BME280;16357;52.188;7.838;2023-03-31T00:04:48;99717.41;;;13.25;62.16
29371;BME280;16357;52.188;7.838;2023-03-31T00:07:20;99717.38;;;13.18;62.28
29371;BME280;16357;52.188;7.838;2023-03-31T00:09:50;99719.00;;;13.12;62.45
29371;BME280;16357;52.188;7.838;2023-03-31T00:12:35;99705.47;;;13.06;62.79
29371;BME280;16357;52.188;7.838;2023-03-31T00:15:02;99706.91;;;13.02;62.99
29371;BME280;16357;52.188;7.838;2023-03-31T00:17:28;99704.63;;;12.99;63.09
29371;BME280;16357;52.188;7.838;2023-03-31T00:19:59;99696.09;;;12.95;63.16
29371;BME280;16357;52.188;7.838;2023-03-31T00:22:30;99691.75;;;12.94;63.33
29371;BME280;16357;52.188;7.838;2023-03-31T00:24:57;99691.94;;;12.92;63.49
29371;BME280;16357;52.188;7.838;2023-03-31T00:27:23;99683.03;;;12.92;63.36
29371;BME280;16357;52.188;7.838;2023-03-31T00:29:50;99677.88;;;12.90;63.44
29371;BME280;16357;52.188;7.838;2023-03-31T00:32:18;99677.00;;;12.90;63.33
29371;BME280;16357;52.188;7.838;2023-03-31T00:34:45;99674.53;;;12.88;63.21
29371;BME280;16357;52.188;7.838;2023-03-31T00:37:11;99659.63;;;12.86;63.41
29371;BME280;16357;52.188;7.838;2023-03-31T00:39:39;99660.00;;;12.83;63.24
29371;BME280;16357;52.188;7.838;2023-03-31T00:42:09;99661.03;;;12.82;63.17
29371;BME280;16357;52.188;7.838;2023-03-31T00:47:33;99662.00;;;12.74;63.40
29371;BME280;16357;52.188;7.838;2023-03-31T00:49:59;99656.19;;;12.70;63.41
29371;BME280;16357;52.188;7.838;2023-03-31T00:52:30;99661.97;;;12.67;63.08
29371;BME280;16357;52.188;7.838;2023-03-31T00:55:04;99657.19;;;12.63;63.20
29371;BME280;16357;52.188;7.838;2023-03-31T00:57:34;99647.00;;;12.58;63.48
29371;BME280;16357;52.188;7.838;2023-03-31T01:00:07;99647.41;;;12.55;63.52
29371;BME280;16357;52.188;7.838;2023-03-31T01:02:47;99641.59;;;12.51;63.61
29371;BME280;16357;52.188;7.838;2023-03-31T01:05:24;99633.91;;;12.48;63.68
29371;BME280;16357;52.188;7.838;2023-03-31T01:07:51;99632.44;;;12.46;63.84
29371;BME280;16357;52.188;7.838;2023-03-31T01:10:19;99624.78;;;12.43;63.87
29371;BME280;16357;52.188;7.838;2023-03-31T01:12:51;99618.75;;;12.41;63.74
29371;BME280;16357;52.188;7.838;2023-03-31T01:15:19;99616.47;;;12.38;63.73
29371;BME280;16357;52.188;7.838;2023-03-31T01:17:46;99610.44;;;12.36;63.99
29371;BME280;16357;52.188;7.838;2023-03-31T01:38:49;99577.25;;;12.22;64.41
29371;BME280;16357;52.188;7.838;2023-03-31T01:41:54;99577.25;;;12.22;64.27
29371;BME280;16357;52.188;7.838;2023-03-31T01:47:16;99571.00;;;12.21;64.76
29371;BME280;16357;52.188;7.838;2023-03-31T01:50:04;99563.81;;;12.22;64.74
29371;BME280;16357;52.188;7.838;2023-03-31T01:52:46;99563.59;;;12.23;64.74
29371;BME280;16357;52.188;7.838;2023-03-31T01:55:19;99555.53;;;12.23;64.79
29371;BME280;16357;52.188;7.838;2023-03-31T01:57:52;99548.94;;;12.26;65.03
29371;BME280;16357;52.188;7.838;2023-03-31T02:00:27;99550.38;;;12.28;64.96
29371;BME280;16357;52.188;7.838;2023-03-31T02:03:05;99539.22;;;12.32;65.11
29371;BME280;16357;52.188;7.838;2023-03-31T02:05:37;99539.69;;;12.35;65.21
29371;BME280;16357;52.188;7.838;2023-03-31T02:08:16;99540.13;;;12.39;65.26
29371;BME280;16357;52.188;7.838;2023-03-31T02:10:46;99531.66;;;12.42;65.28
29371;BME280;16357;52.188;7.838;2023-03-31T02:13:13;99528.16;;;12.48;65.43
29371;BME280;16357;52.188;7.838;2023-03-31T02:15:45;99522.19;;;12.52;65.58
29371;BME280;16357;52.188;7.838;2023-03-31T02:18:15;99517.25;;;12.56;65.30
29371;BME280;16357;52.188;7.838;2023-03-31T02:20:46;99511.25;;;12.61;65.25
29371;BME280;16357;52.188;7.838;2023-03-31T02:23:16;99508.78;;;12.66;65.26
29371;BME280;16357;52.188;7.838;2023-03-31T02:25:50;99505.50;;;12.70;65.18
29371;BME280;16357;52.188;7.838;2023-03-31T02:28:24;99499.72;;;12.73;65.03
29371;BME280;16357;52.188;7.838;2023-03-31T02:33:39;99493.34;;;12.81;65.09
29371;BME280;16357;52.188;7.838;2023-03-31T02:36:06;99490.22;;;12.84;65.09
29371;BME280;16357;52.188;7.838;2023-03-31T02:38:54;99488.00;;;12.88;65.01
29371;BME280;16357;52.188;7.838;2023-03-31T02:41:22;99477.81;;;12.90;64.94
29371;BME280;16357;52.188;7.838;2023-03-31T02:43:49;99481.16;;;12.92;64.98
29371;BME280;16357;52.188;7.838;2023-03-31T02:46:15;99471.84;;;12.94;65.22
29371;BME280;16357;52.188;7.838;2023-03-31T02:48:46;99458.81;;;12.98;65.04
29371;BME280;16357;52.188;7.838;2023-03-31T02:59:45;99456.75;;;13.07;65.02
29371;BME280;16357;52.188;7.838;2023-03-31T03:02:26;99447.63;;;13.08;64.94
29371;BME280;16357;52.188;7.838;2023-03-31T03:11:01;99427.97;;;13.07;65.13
29371;BME280;16357;52.188;7.838;2023-03-31T03:16:17;99412.84;;;13.06;65.29
29371;BME280;16357;52.188;7.838;2023-03-31T03:18:59;99402.09;;;13.06;65.40
29371;BME280;16357;52.188;7.838;2023-03-31T03:21:26;99390.47;;;13.06;65.76
29371;BME280;16357;52.188;7.838;2023-03-31T03:23:53;99389.63;;;13.05;65.94
29371;BME280;16357;52.188;7.838;2023-03-31T03:26:20;99387.78;;;13.06;65.88
29371;BME280;16357;52.188;7.838;2023-03-31T03:28:49;99384.88;;;13.07;65.79
29371;BME280;16357;52.188;7.838;2023-03-31T03:31:16;99379.31;;;13.09;65.79
29371;BME280;16357;52.188;7.838;2023-03-31T03:33:43;99382.81;;;13.09;65.78
29371;BME280;16357;52.188;7.838;2023-03-31T03:36:09;99365.63;;;13.10;66.09
29371;BME280;16357;52.188;7.838;2023-03-31T03:38:36;99352.78;;;13.12;66.05
29371;BME280;16357;52.188;7.838;2023-03-31T03:41:03;99350.09;;;13.12;65.98
29371;BME280;16357;52.188;7.838;2023-03-31T03:43:29;99336.63;;;13.12;66.14
29371;BME280;16357;52.188;7.838;2023-03-31T03:45:56;99336.81;;;13.11;66.10
29371;BME280;16357;52.188;7.838;2023-03-31T03:48:22;99317.97;;;13.11;66.10
29371;BME280;16357;52.188;7.838;2023-03-31T03:50:49;99313.44;;;13.11;66.37
29371;BME280;16357;52.188;7.838;2023-03-31T03:53:15;99300.19;;;13.10;66.18
29371;BME280;16357;52.188;7.838;2023-03-31T03:55:42;99306.38;;;13.10;66.37
29371;BME280;16357;52.188;7.838;2023-03-31T03:58:10;99302.88;;;13.10;66.42
29371;BME280;16357;52.188;7.838;2023-03-31T04:00:36;99292.91;;;13.10;66.32
29371;BME280;16357;52.188;7.838;2023-03-31T04:03:03;99284.03;;;13.10;66.37
29371;BME280;16357;52.188;7.838;2023-03-31T04:05:29;99281.13;;;13.11;66.41
29371;BME280;16357;52.188;7.838;2023-03-31T04:07:56;99277.41;;;13.12;66.50
29371;BME280;16357;52.188;7.838;2023-03-31T04:10:22;99273.06;;;13.11;66.41
29371;BME280;16357;52.188;7.838;2023-03-31T04:12:49;99276.34;;;13.13;66.39
29371;BME280;16357;52.188;7.838;2023-03-31T04:15:16;99264.97;;;13.11;66.41
29371;BME280;16357;52.188;7.838;2023-03-31T04:17:42;99270.38;;;13.11;66.58
29371;BME280;16357;52.188;7.838;2023-03-31T04:20:13;99272.22;;;13.11;66.57
29371;BME280;16357;52.188;7.838;2023-03-31T04:22:40;99269.31;;;13.12;66.53
29371;BME280;16357;52.188;7.838;2023-03-31T04:25:09;99270.13;;;13.13;66.43
29371;BME280;16357;52.188;7.838;2023-03-31T04:27:44;99268.50;;;13.12;66.59
29371;BME280;16357;52.188;7.838;2023-03-31T04:30:16;99254.22;;;13.11;66.40
29371;BME280;16357;52.188;7.838;2023-03-31T04:32:53;99251.72;;;13.10;66.43
29371;BME280;16357;52.188;7.838;2023-03-31T04:35:26;99239.06;;;13.10;66.46
29371;BME280;16357;52.188;7.838;2023-03-31T04:37:53;99235.75;;;13.08;66.41
29371;BME280;16357;52.188;7.838;2023-03-31T04:40:25;99228.72;;;13.07;66.53
29371;BME280;16357;52.188;7.838;2023-03-31T04:42:51;99223.53;;;13.06;66.73
29371;BME280;16357;52.188;7.838;2023-03-31T04:45:17;99217.34;;;13.05;66.77
29371;BME280;16357;52.188;7.838;2023-03-31T04:47:44;99210.31;;;13.04;66.86
29371;BME280;16357;52.188;7.838;2023-03-31T04:50:10;99209.50;;;13.04;66.84
29371;BME280;16357;52.188;7.838;2023-03-31T04:52:42;99211.31;;;13.03;66.75
29371;BME280;16357;52.188;7.838;2023-03-31T04:55:08;99214.88;;;13.04;67.00
29371;BME280;16357;52.188;7.838;2023-03-31T04:57:35;99213.19;;;13.03;67.10
29371;BME280;16357;52.188;7.838;2023-03-31T05:00:03;99208.63;;;13.03;67.12
29371;BME280;16357;52.188;7.838;2023-03-31T05:02:33;99204.09;;;13.04;67.25
29371;BME280;16357;52.188;7.838;2023-03-31T05:05:00;99188.97;;;13.03;67.21
29371;BME280;16357;52.188;7.838;2023-03-31T05:07:26;99182.75;;;13.02;67.14
29371;BME280;16357;52.188;7.838;2023-03-31T05:09:53;99186.28;;;13.03;67.14
29371;BME280;16357;52.188;7.838;2023-03-31T05:12:19;99167.44;;;13.03;67.13
29371;BME280;16357;52.188;7.838;2023-03-31T05:14:46;99167.44;;;13.03;67.15
29371;BME280;16357;52.188;7.838;2023-03-31T05:17:12;99165.56;;;13.03;67.39
29371;BME280;16357;52.188;7.838;2023-03-31T05:19:38;99163.91;;;13.02;67.01
29371;BME280;16357;52.188;7.838;2023-03-31T05:22:05;99160.19;;;13.03;67.18
29371;BME280;16357;52.188;7.838;2023-03-31T05:24:31;99159.16;;;13.04;67.26
29371;BME280;16357;52.188;7.838;2023-03-31T05:26:58;99157.50;;;13.03;67.24
29371;BME280;16357;52.188;7.838;2023-03-31T05:29:24;99149.41;;;13.03;67.39
29371;BME280;16357;52.188;7.838;2023-03-31T05:31:51;99151.09;;;13.04;67.38
29371;BME280;16357;52.188;7.838;2023-03-31T05:34:19;99151.91;;;13.05;67.36
29371;BME280;16357;52.188;7.838;2023-03-31T05:36:46;99148.38;;;13.04;67.23
29371;BME280;16357;52.188;7.838;2023-03-31T05:39:18;99142.78;;;13.06;67.27
29371;BME280;16357;52.188;7.838;2023-03-31T05:41:45;99135.75;;;13.05;67.42
29371;BME280;16357;52.188;7.838;2023-03-31T05:44:11;99133.88;;;13.05;67.50
29371;BME280;16357;52.188;7.838;2023-03-31T05:46:38;99129.31;;;13.06;67.49
29371;BME280;16357;52.188;7.838;2023-03-31T05:49:04;99129.13;;;13.07;67.53
29371;BME280;16357;52.188;7.838;2023-03-31T05:51:32;99130.16;;;13.06;67.74
29371;BME280;16357;52.188;7.838;2023-03-31T05:53:59;99129.94;;;13.08;67.62
29371;BME280;16357;52.188;7.838;2023-03-31T05:56:25;99110.06;;;13.09;67.66
29371;BME280;16357;52.188;7.838;2023-03-31T05:58:52;99106.31;;;13.10;67.52
29371;BME280;16357;52.188;7.838;2023-03-31T06:01:19;99094.50;;;13.11;67.36
29371;BME280;16357;52.188;7.838;2023-03-31T06:03:48;99088.31;;;13.10;67.50
29371;BME280;16357;52.188;7.838;2023-03-31T06:06:15;99086.44;;;13.11;67.53
29371;BME280;16357;52.188;7.838;2023-03-31T06:08:45;99084.34;;;13.13;67.56
29371;BME280;16357;52.188;7.838;2023-03-31T06:11:17;99074.00;;;13.16;67.47
29371;BME280;16357;52.188;7.838;2023-03-31T06:13:45;99066.94;;;13.15;67.50
29371;BME280;16357;52.188;7.838;2023-03-31T06:16:13;99060.31;;;13.18;67.34
29371;BME280;16357;52.188;7.838;2023-03-31T06:18:40;99055.75;;;13.18;67.28
29371;BME280;16357;52.188;7.838;2023-03-31T06:21:07;99046.66;;;13.20;67.46
29371;BME280;16357;52.188;7.838;2023-03-31T06:23:36;99047.47;;;13.20;67.38
29371;BME280;16357;52.188;7.838;2023-03-31T06:26:05;99036.47;;;13.22;67.31
29371;BME280;16357;52.188;7.838;2023-03-31T06:28:34;99021.34;;;13.21;67.51
29371;BME280;16357;52.188;7.838;2023-03-31T06:31:06;99024.66;;;13.23;67.10
29371;BME280;16357;52.188;7.838;2023-03-31T06:33:34;99015.78;;;13.22;67.43
29371;BME280;16357;52.188;7.838;2023-03-31T06:36:00;99017.59;;;13.22;67.26
29371;BME280;16357;52.188;7.838;2023-03-31T06:38:31;99018.47;;;13.22;67.46
29371;BME280;16357;52.188;7.838;2023-03-31T06:40:58;99007.69;;;13.22;67.48
29371;BME280;16357;52.188;7.838;2023-03-31T06:43:24;99000.44;;;13.23;67.90
29371;BME280;16357;52.188;7.838;2023-03-31T06:45:52;98993.59;;;13.27;67.95
29371;BME280;16357;52.188;7.838;2023-03-31T06:48:19;98995.63;;;13.31;68.19
29371;BME280;16357;52.188;7.838;2023-03-31T06:50:46;98992.28;;;13.36;68.18
29371;BME280;16357;52.188;7.838;2023-03-31T06:53:13;98995.53;;;13.45;68.20
29371;BME280;16357;52.188;7.838;2023-03-31T06:55:39;98988.44;;;13.50;67.78
29371;BME280;16357;52.188;7.838;2023-03-31T06:58:06;98983.03;;;13.57;67.59
29371;BME280;16357;52.188;7.838;2023-03-31T07:00:33;98980.25;;;13.64;67.70
29371;BME280;16357;52.188;7.838;2023-03-31T07:02:59;98978.59;;;13.69;67.20
29371;BME280;16357;52.188;7.838;2023-03-31T07:05:36;98974.19;;;13.75;66.89
29371;BME280;16357;52.188;7.838;2023-03-31T07:08:03;98976.44;;;13.78;66.69
29371;BME280;16357;52.188;7.838;2023-03-31T07:10:32;98966.03;;;13.81;66.52
29371;BME280;16357;52.188;7.838;2023-03-31T07:12:59;98965.81;;;13.83;66.48
29371;BME280;16357;52.188;7.838;2023-03-31T07:15:27;98962.88;;;13.84;66.35
29371;BME280;16357;52.188;7.838;2023-03-31T07:17:55;98955.41;;;13.87;66.21
29371;BME280;16357;52.188;7.838;2023-03-31T07:20:28;98962.47;;;13.88;66.08
29371;BME280;16357;52.188;7.838;2023-03-31T07:22:55;98954.13;;;13.89;66.06
29371;BME280;16357;52.188;7.838;2023-03-31T07:25:22;98951.22;;;13.91;66.06
29371;BME280;16357;52.188;7.838;2023-03-31T07:27:48;98942.91;;;13.92;66.33
29371;BME280;16357;52.188;7.838;2023-03-31T07:30:17;98954.09;;;13.96;66.10
29371;BME280;16357;52.188;7.838;2023-03-31T07:32:48;98952.81;;;13.98;66.24
29371;BME280;16357;52.188;7.838;2023-03-31T07:35:15;98942.63;;;14.00;65.83
29371;BME280;16357;52.188;7.838;2023-03-31T07:37:45;98941.13;;;14.04;65.97
29371;BME280;16357;52.188;7.838;2023-03-31T07:40:15;98936.97;;;14.09;65.76
29371;BME280;16357;52.188;7.838;2023-03-31T07:42:42;98939.41;;;14.10;65.37
29371;BME280;16357;52.188;7.838;2023-03-31T07:45:09;98938.13;;;14.13;64.96
29371;BME280;16357;52.188;7.838;2023-03-31T07:47:36;98932.75;;;14.13;64.75
29371;BME280;16357;52.188;7.838;2023-03-31T07:50:04;98927.34;;;14.13;64.77
29371;BME280;16357;52.188;7.838;2023-03-31T07:52:31;98925.72;;;14.12;64.44
29371;BME280;16357;52.188;7.838;2023-03-31T07:54:57;98935.66;;;14.11;64.35
29371;BME280;16357;52.188;7.838;2023-03-31T07:57:24;98927.81;;;14.10;64.25
29371;BME280;16357;52.188;7.838;2023-03-31T07:59:51;98924.50;;;14.08;64.54
29371;BME280;16357;52.188;7.838;2023-03-31T08:02:17;98926.59;;;14.05;64.24
29371;BME280;16357;52.188;7.838;2023-03-31T08:05:05;98928.47;;;14.05;64.25
29371;BME280;16357;52.188;7.838;2023-03-31T08:07:35;98920.63;;;14.03;64.21
29371;BME280;16357;52.188;7.838;2023-03-31T08:10:04;98918.13;;;14.02;64.33
29371;BME280;16357;52.188;7.838;2023-03-31T08:12:31;98908.00;;;13.97;64.13
29371;BME280;16357;52.188;7.838;2023-03-31T08:14:57;98921.72;;;13.96;64.37
29371;BME280;16357;52.188;7.838;2023-03-31T08:17:24;98918.06;;;13.90;64.59
29371;BME280;16357;52.188;7.838;2023-03-31T08:19:50;98922.25;;;13.86;64.73
29371;BME280;16357;52.188;7.838;2023-03-31T08:22:17;98915.88;;;13.80;65.04
29371;BME280;16357;52.188;7.838;2023-03-31T08:24:43;98917.59;;;13.75;65.21
29371;BME280;16357;52.188;7.838;2023-03-31T08:27:10;98906.66;;;13.70;65.63
29371;BME280;16357;52.188;7.838;2023-03-31T08:29:37;98915.19;;;13.67;65.97
29371;BME280;16357;52.188;7.838;2023-03-31T08:32:04;98912.09;;;13.63;66.26
29371;BME280;16357;52.188;7.838;2023-03-31T08:34:32;98907.75;;;13.62;66.41
29371;BME280;16357;52.188;7.838;2023-03-31T08:36:58;98906.09;;;13.61;66.67
29371;BME280;16357;52.188;7.838;2023-03-31T08:39:25;98908.56;;;13.63;66.52
29371;BME280;16357;52.188;7.838;2023-03-31T08:42:06;98909.38;;;13.63;66.28
29371;BME280;16357;52.188;7.838;2023-03-31T08:44:44;98895.72;;;13.65;66.51
29371;BME280;16357;52.188;7.838;2023-03-31T08:47:17;98903.78;;;13.65;66.88
29371;BME280;16357;52.188;7.838;2023-03-31T08:49:50;98897.94;;;13.68;66.83
29371;BME280;16357;52.188;7.838;2023-03-31T08:52:23;98901.25;;;13.70;66.60
29371;BME280;16357;52.188;7.838;2023-03-31T08:54:57;98888.41;;;13.72;66.88
29371;BME280;16357;52.188;7.838;2023-03-31T08:57:34;98898.72;;;13.75;66.92
29371;BME280;16357;52.188;7.838;2023-03-31T09:00:14;98898.88;;;13.80;67.12
29371;BME280;16357;52.188;7.838;2023-03-31T09:03:04;98896.34;;;13.85;67.34
29371;BME280;16357;52.188;7.838;2023-03-31T09:05:39;98887.81;;;13.88;67.19
29371;BME280;16357;52.188;7.838;2023-03-31T09:08:40;98893.94;;;13.95;66.96
29371;BME280;16357;52.188;7.838;2023-03-31T09:11:13;98892.06;;;13.96;66.38
29371;BME280;16357;52.188;7.838;2023-03-31T09:14:00;98885.84;;;13.95;66.38
29371;BME280;16357;52.188;7.838;2023-03-31T09:19:34;98881.50;;;13.94;66.33
29371;BME280;16357;52.188;7.838;2023-03-31T09:22:04;98872.81;;;13.92;66.23
29371;BME280;16357;52.188;7.838;2023-03-31T09:24:44;98886.53;;;13.91;66.06
29371;BME280;16357;52.188;7.838;2023-03-31T09:27:11;98907.69;;;13.87;66.02
29371;BME280;16357;52.188;7.838;2023-03-31T09:32:31;98876.25;;;13.81;66.68
29371;BME280;16357;52.188;7.838;2023-03-31T09:35:21;98869.06;;;13.75;66.05
29371;BME280;16357;52.188;7.838;2023-03-31T09:37:48;98875.56;;;13.67;64.70
29371;BME280;16357;52.188;7.838;2023-03-31T09:40:26;98872.94;;;13.60;64.69
29371;BME280;16357;52.188;7.838;2023-03-31T09:42:57;98876.53;;;13.54;64.44
29371;BME280;16357;52.188;7.838;2023-03-31T09:45:24;98869.53;;;13.47;65.28
29371;BME280;16357;52.188;7.838;2023-03-31T09:47:53;98869.38;;;13.42;65.23
29371;BME280;16357;52.188;7.838;2023-03-31T09:50:23;98860.94;;;13.38;65.41
29371;BME280;16357;52.188;7.838;2023-03-31T09:52:58;98860.94;;;13.38;65.45
29371;BME280;16357;52.188;7.838;2023-03-31T09:55:43;98865.47;;;13.37;65.61
29371;BME280;16357;52.188;7.838;2023-03-31T09:58:14;98856.38;;;13.38;66.03
29371;BME280;16357;52.188;7.838;2023-03-31T10:00:42;98863.38;;;13.39;66.03
29371;BME280;16357;52.188;7.838;2023-03-31T10:03:12;98855.91;;;13.42;65.94
29371;BME280;16357;52.188;7.838;2023-03-31T10:05:49;98854.66;;;13.44;66.25
29371;BME280;16357;52.188;7.838;2023-03-31T10:10:48;98841.34;;;13.49;66.54
29371;BME280;16357;52.188;7.838;2023-03-31T10:13:19;98840.91;;;13.52;66.73
29371;BME280;16357;52.188;7.838;2023-03-31T10:15:46;98834.47;;;13.53;66.85
29371;BME280;16357;52.188;7.838;2023-03-31T10:18:16;98840.44;;;13.55;66.97
29371;BME280;16357;52.188;7.838;2023-03-31T10:20:57;98840.00;;;13.58;67.14
29371;BME280;16357;52.188;7.838;2023-03-31T10:23:28;98832.53;;;13.60;67.08
29371;BME280;16357;52.188;7.838;2023-03-31T10:25:55;98833.94;;;13.63;67.18
29371;BME280;16357;52.188;7.838;2023-03-31T10:28:22;98828.34;;;13.65;67.25
29371;BME280;16357;52.188;7.838;2023-03-31T10:30:54;98828.72;;;13.68;67.13
29371;BME280;16357;52.188;7.838;2023-03-31T10:33:23;98828.25;;;13.71;67.21
29371;BME280;16357;52.188;7.838;2023-03-31T10:35:58;98818.91;;;13.74;67.28
29371;BME280;16357;52.188;7.838;2023-03-31T10:38:29;98822.81;;;13.78;67.37
29371;BME280;16357;52.188;7.838;2023-03-31T10:40:58;98816.97;;;13.81;67.17
29371;BME280;16357;52.188;7.838;2023-03-31T10:43:47;98826.03;;;13.87;67.22
29371;BME280;16357;52.188;7.838;2023-03-31T10:46:15;98815.63;;;13.90;67.17
29371;BME280;16357;52.188;7.838;2023-03-31T10:48:42;98819.50;;;13.94;67.24
29371;BME280;16357;52.188;7.838;2023-03-31T10:51:18;98820.25;;;14.01;67.16
29371;BME280;16357;52.188;7.838;2023-03-31T10:53:49;98817.72;;;14.07;67.17
29371;BME280;16357;52.188;7.838;2023-03-31T10:56:42;98817.84;;;14.12;67.11
29371;BME280;16357;52.188;7.838;2023-03-31T11:10:17;98793.34;;;14.43;67.12
29371;BME280;16357;52.188;7.838;2023-03-31T11:16:10;98787.78;;;14.57;66.98
29371;BME280;16357;52.188;7.838;2023-03-31T11:21:57;98782.78;;;14.72;66.73
29371;BME280;16357;52.188;7.838;2023-03-31T11:24:32;98787.25;;;14.78;66.21
29371;BME280;16357;52.188;7.838;2023-03-31T11:29:59;98783.16;;;14.87;66.17
29371;BME280;16357;52.188;7.838;2023-03-31T11:43:47;98765.09;;;15.00;65.32
29371;BME280;16357;52.188;7.838;2023-03-31T11:48:49;98770.97;;;14.97;65.26
29371;BME280;16357;52.188;7.838;2023-03-31T11:51:20;98773.66;;;14.97;65.68
29371;BME280;16357;52.188;7.838;2023-03-31T11:53:52;98763.09;;;14.95;65.91
29371;BME280;16357;52.188;7.838;2023-03-31T11:56:20;98754.78;;;14.97;66.16
29371;BME280;16357;52.188;7.838;2023-03-31T11:58:51;98754.88;;;15.02;66.22
29371;BME280;16357;52.188;7.838;2023-03-31T12:01:29;98758.31;;;15.09;66.81
29371;BME280;16357;52.188;7.838;2023-03-31T12:04:08;98756.88;;;15.18;66.80
29371;BME280;16357;52.188;7.838;2023-03-31T12:06:40;98758.41;;;15.26;66.86
29371;BME280;16357;52.188;7.838;2023-03-31T12:09:16;98751.81;;;15.33;65.99
29371;BME280;16357;52.188;7.838;2023-03-31T12:12:09;98756.88;;;15.42;65.81
29371;BME280;16357;52.188;7.838;2023-03-31T12:14:59;98744.88;;;15.49;65.33
29371;BME280;16357;52.188;7.838;2023-03-31T12:17:28;98744.16;;;15.54;65.53
29371;BME280;16357;52.188;7.838;2023-03-31T12:19:58;98734.03;;;15.61;65.77
29371;BME280;16357;52.188;7.838;2023-03-31T12:22:30;98726.63;;;15.68;65.40
29371;BME280;16357;52.188;7.838;2023-03-31T12:24:59;98727.56;;;15.74;64.77
29371;BME280;16357;52.188;7.838;2023-03-31T12:27:29;98727.19;;;15.82;65.01
29371;BME280;16357;52.188;7.838;2023-03-31T12:30:02;98709.75;;;15.90;65.62
29371;BME280;16357;52.188;7.838;2023-03-31T12:32:32;98706.22;;;16.01;66.08
29371;BME280;16357;52.188;7.838;2023-03-31T12:35:05;98705.06;;;16.14;65.92
29371;BME280;16357;52.188;7.838;2023-03-31T12:40:11;98699.13;;;16.45;65.88
29371;BME280;16357;52.188;7.838;2023-03-31T12:45:26;98707.44;;;16.73;63.44
29371;BME280;16357;52.188;7.838;2023-03-31T12:55:45;98697.13;;;16.86;61.25
29371;BME280;16357;52.188;7.838;2023-03-31T13:01:07;98702.03;;;16.73;60.68
29371;BME280;16357;52.188;7.838;2023-03-31T13:03:41;98695.63;;;16.62;60.08
29371;BME280;16357;52.188;7.838;2023-03-31T13:06:45;98699.22;;;16.51;60.17
29371;BME280;16357;52.188;7.838;2023-03-31T13:11:39;98706.16;;;16.30;60.66
29371;BME280;16357;52.188;7.838;2023-03-31T13:14:29;98708.72;;;16.19;60.75
29371;BME280;16357;52.188;7.838;2023-03-31T13:17:11;98699.91;;;16.12;60.85
29371;BME280;16357;52.188;7.838;2023-03-31T13:19:41;98704.16;;;16.08;61.43
29371;BME280;16357;52.188;7.838;2023-03-31T13:27:56;98692.53;;;16.08;62.12
29371;BME280;16357;52.188;7.838;2023-03-31T13:33:34;98685.91;;;16.15;62.22
29371;BME280;16357;52.188;7.838;2023-03-31T13:47:09;98696.19;;;16.47;59.71
29371;BME280;16357;52.188;7.838;2023-03-31T13:53:16;98690.44;;;16.60;59.15
29371;BME280;16357;52.188;7.838;2023-03-31T13:56:08;98690.53;;;16.65;59.24
29371;BME280;16357;52.188;7.838;2023-03-31T14:04:53;98696.72;;;16.78;58.79
29371;BME280;16357;52.188;7.838;2023-03-31T14:07:39;98678.06;;;16.81;58.63
29371;BME280;16357;52.188;7.838;2023-03-31T14:10:35;98690.06;;;16.85;58.65
29371;BME280;16357;52.188;7.838;2023-03-31T14:13:12;98680.94;;;16.92;58.79
29371;BME280;16357;52.188;7.838;2023-03-31T14:15:51;98683.97;;;16.95;59.04
29371;BME280;16357;52.188;7.838;2023-03-31T14:18:32;98674.28;;;16.99;58.59
29371;BME280;16357;52.188;7.838;2023-03-31T14:24:07;98671.44;;;17.11;58.23
29371;BME280;16357;52.188;7.838;2023-03-31T14:26:46;98665.56;;;17.14;57.98
29371;BME280;16357;52.188;7.838;2023-03-31T14:29:43;98666.19;;;17.21;58.33
29371;BME280;16357;52.188;7.838;2023-03-31T14:32:38;98660.59;;;17.28;57.72
29371;BME280;16357;52.188;7.838;2023-03-31T14:35:33;98655.78;;;17.35;57.95
29371;BME280;16357;52.188;7.838;2023-03-31T14:38:18;98652.66;;;17.43;57.46
29371;BME280;16357;52.188;7.838;2023-03-31T14:40:51;98653.53;;;17.49;56.96
29371;BME280;16357;52.188;7.838;2023-03-31T14:43:29;98644.63;;;17.53;57.23
29371;BME280;16357;52.188;7.838;2023-03-31T14:46:06;98646.34;;;17.60;56.25
29371;BME280;16357;52.188;7.838;2023-03-31T14:48:40;98646.91;;;17.62;55.97
29371;BME280;16357;52.188;7.838;2023-03-31T14:51:12;98643.34;;;17.61;55.49
29371;BME280;16357;52.188;7.838;2023-03-31T14:53:39;98636.06;;;17.62;55.40
29371;BME280;16357;52.188;7.838;2023-03-31T14:56:10;98636.59;;;17.64;55.86
29371;BME280;16357;52.188;7.838;2023-03-31T14:58:46;98634.97;;;17.63;55.76
29371;BME280;16357;52.188;7.838;2023-03-31T15:01:16;98637.69;;;17.63;54.91
29371;BME280;16357;52.188;7.838;2023-03-31T15:03:44;98633.34;;;17.62;54.80
29371;BME280;16357;52.188;7.838;2023-03-31T15:06:12;98623.56;;;17.61;54.36
29371;BME280;16357;52.188;7.838;2023-03-31T15:08:39;98631.69;;;17.61;54.88
29371;BME280;16357;52.188;7.838;2023-03-31T15:11:11;98623.56;;;17.61;55.60
29371;BME280;16357;52.188;7.838;2023-03-31T15:13:43;98629.56;;;17.63;54.63
29371;BME280;16357;52.188;7.838;2023-03-31T15:16:34;98616.56;;;17.65;54.60
29371;BME280;16357;52.188;7.838;2023-03-31T15:19:09;98626.31;;;17.66;54.59
29371;BME280;16357;52.188;7.838;2023-03-31T15:21:37;98616.88;;;17.68;54.14
29371;BME280;16357;52.188;7.838;2023-03-31T15:24:04;98613.91;;;17.70;53.71
29371;BME280;16357;52.188;7.838;2023-03-31T15:26:34;98612.56;;;17.72;54.05
29371;BME280;16357;52.188;7.838;2023-03-31T15:31:39;98612.88;;;17.76;53.65
29371;BME280;16357;52.188;7.838;2023-03-31T15:34:16;98608.63;;;17.80;53.99
29371;BME280;16357;52.188;7.838;2023-03-31T15:36:44;98596.94;;;17.80;53.43
29371;BME280;16357;52.188;7.838;2023-03-31T15:39:12;98589.03;;;17.78;53.26
29371;BME280;16357;52.188;7.838;2023-03-31T15:41:40;98574.91;;;17.76;53.22
29371;BME280;16357;52.188;7.838;2023-03-31T15:47:28;98593.03;;;17.70;53.52